sensor_id;sensor_type;location;lat;lon;timestamp;temperature;humidity
68701;DHT22;55682;51.114;5.882;2023-05-07T00:02:22;16.37;83.81
68701;DHT22;55682;51.114;5.882;2023-05-07T00:04:48;16.26;84.27
68701;DHT22;55682;51.114;5.882;2023-05-07T00:07:14;16.18;84.67
68701;DHT22;55682;51.114;5.882;2023-05-07T00:09:40;16.13;84.93
68701;DHT22;55682;51.114;5.882;2023-05-07T00:12:07;16.08;85.16
68701;DHT22;55682;51.114;5.882;2023-05-07T00:14:32;16.15;85.23
68701;DHT22;55682;51.114;5.882;2023-05-07T00:16:58;16.20;85.04
68701;DHT22;55682;51.114;5.882;2023-05-07T00:19:24;16.29;84.74
68701;DHT22;55682;51.114;5.882;2023-05-07T00:21:49;16.40;84.33
68701;DHT22;55682;51.114;5.882;2023-05-07T00:24:15;16.52;83.84
68701;DHT22;55682;51.114;5.882;2023-05-07T00:26:41;16.60;83.52
68701;DHT22;55682;51.114;5.882;2023-05-07T00:29:07;16.64;83.32
68701;DHT22;55682;51.114;5.882;2023-05-07T00:31:32;16.66;83.30
68701;DHT22;55682;51.114;5.882;2023-05-07T00:33:58;16.75;83.08
68701;DHT22;55682;51.114;5.882;2023-05-07T00:36:24;16.81;82.82
68701;DHT22;55682;51.114;5.882;2023-05-07T00:38:49;16.88;82.46
68701;DHT22;55682;51.114;5.882;2023-05-07T00:41:15;16.92;82.07
68701;DHT22;55682;51.114;5.882;2023-05-07T00:43:40;16.87;82.12
68701;DHT22;55682;51.114;5.882;2023-05-07T00:46:06;16.88;81.90
68701;DHT22;55682;51.114;5.882;2023-05-07T00:48:32;16.90;82.02
68701;DHT22;55682;51.114;5.882;2023-05-07T00:50:57;16.99;82.00
68701;DHT22;55682;51.114;5.882;2023-05-07T00:53:23;17.06;81.55
68701;DHT22;55682;51.114;5.882;2023-05-07T00:55:50;17.10;81.11
68701;DHT22;55682;51.114;5.882;2023-05-07T00:58:16;17.14;80.90
68701;DHT22;55682;51.114;5.882;2023-05-07T01:00:42;17.15;80.81
68701;DHT22;55682;51.114;5.882;2023-05-07T01:03:08;17.09;80.79
68701;DHT22;55682;51.114;5.882;2023-05-07T01:05:34;16.93;81.17
68701;DHT22;55682;51.114;5.882;2023-05-07T01:08:01;16.76;81.75
68701;DHT22;55682;51.114;5.882;2023-05-07T01:10:28;16.61;82.33
68701;DHT22;55682;51.114;5.882;2023-05-07T01:12:57;16.49;83.00
68701;DHT22;55682;51.114;5.882;2023-05-07T01:15:24;16.31;83.61
68701;DHT22;55682;51.114;5.882;2023-05-07T01:17:50;16.19;84.35
68701;DHT22;55682;51.114;5.882;2023-05-07T01:20:26;16.11;84.90
68701;DHT22;55682;51.114;5.882;2023-05-07T01:22:54;16.12;85.28
68701;DHT22;55682;51.114;5.882;2023-05-07T01:25:21;16.17;85.38
68701;DHT22;55682;51.114;5.882;2023-05-07T01:27:51;16.13;85.24
68701;DHT22;55682;51.114;5.882;2023-05-07T01:30:21;16.07;85.51
68701;DHT22;55682;51.114;5.882;2023-05-07T01:35:29;15.99;85.99
68701;DHT22;55682;51.114;5.882;2023-05-07T01:37:56;15.93;86.09
68701;DHT22;55682;51.114;5.882;2023-05-07T01:40:24;15.86;86.29
68701;DHT22;55682;51.114;5.882;2023-05-07T01:42:52;15.82;86.46
68701;DHT22;55682;51.114;5.882;2023-05-07T01:45:18;15.78;86.62
68701;DHT22;55682;51.114;5.882;2023-05-07T01:47:44;15.76;86.81
68701;DHT22;55682;51.114;5.882;2023-05-07T01:50:10;15.81;86.73
68701;DHT22;55682;51.114;5.882;2023-05-07T01:52:38;15.85;86.61
68701;DHT22;55682;51.114;5.882;2023-05-07T01:55:05;15.80;86.61
68701;DHT22;55682;51.114;5.882;2023-05-07T01:57:31;15.77;86.49
68701;DHT22;55682;51.114;5.882;2023-05-07T01:59:57;15.76;86.48
68701;DHT22;55682;51.114;5.882;2023-05-07T02:02:22;15.80;86.54
68701;DHT22;55682;51.114;5.882;2023-05-07T02:04:49;15.83;86.40
68701;DHT22;55682;51.114;5.882;2023-05-07T02:07:15;15.80;86.19
68701;DHT22;55682;51.114;5.882;2023-05-07T02:09:41;15.66;86.49
68701;DHT22;55682;51.114;5.882;2023-05-07T02:12:07;15.52;87.05
68701;DHT22;55682;51.114;5.882;2023-05-07T02:14:33;15.43;87.52
68701;DHT22;55682;51.114;5.882;2023-05-07T02:16:58;15.38;87.90
68701;DHT22;55682;51.114;5.882;2023-05-07T02:19:24;15.45;88.07
68701;DHT22;55682;51.114;5.882;2023-05-07T02:21:51;15.58;87.84
68701;DHT22;55682;51.114;5.882;2023-05-07T02:24:16;15.71;87.23
68701;DHT22;55682;51.114;5.882;2023-05-07T02:26:42;15.82;86.42
68701;DHT22;55682;51.114;5.882;2023-05-07T02:29:08;15.92;85.96
68701;DHT22;55682;51.114;5.882;2023-05-07T02:31:33;16.01;85.76
68701;DHT22;55682;51.114;5.882;2023-05-07T02:34:00;16.06;85.58
68701;DHT22;55682;51.114;5.882;2023-05-07T02:36:26;16.13;85.35
68701;DHT22;55682;51.114;5.882;2023-05-07T02:38:59;16.19;85.07
68701;DHT22;55682;51.114;5.882;2023-05-07T02:41:24;16.24;84.67
68701;DHT22;55682;51.114;5.882;2023-05-07T02:43:50;16.28;84.52
68701;DHT22;55682;51.114;5.882;2023-05-07T02:46:16;16.29;84.33
68701;DHT22;55682;51.114;5.882;2023-05-07T02:48:46;16.29;84.25
68701;DHT22;55682;51.114;5.882;2023-05-07T02:51:11;16.31;84.12
68701;DHT22;55682;51.114;5.882;2023-05-07T02:53:39;16.35;83.83
68701;DHT22;55682;51.114;5.882;2023-05-07T02:56:05;16.37;83.58
68701;DHT22;55682;51.114;5.882;2023-05-07T02:58:31;16.41;83.34
68701;DHT22;55682;51.114;5.882;2023-05-07T03:00:58;16.43;83.27
68701;DHT22;55682;51.114;5.882;2023-05-07T03:03:47;16.47;83.26
68701;DHT22;55682;51.114;5.882;2023-05-07T03:06:12;16.50;83.23
68701;DHT22;55682;51.114;5.882;2023-05-07T03:08:38;16.41;83.32
68701;DHT22;55682;51.114;5.882;2023-05-07T03:11:03;16.27;83.58
68701;DHT22;55682;51.114;5.882;2023-05-07T03:13:29;16.16;84.13
68701;DHT22;55682;51.114;5.882;2023-05-07T03:15:55;16.13;84.45
68701;DHT22;55682;51.114;5.882;2023-05-07T03:18:21;16.08;84.52
68701;DHT22;55682;51.114;5.882;2023-05-07T03:20:48;16.00;84.84
68701;DHT22;55682;51.114;5.882;2023-05-07T03:23:15;15.87;85.32
68701;DHT22;55682;51.114;5.882;2023-05-07T03:25:40;15.74;85.78
68701;DHT22;55682;51.114;5.882;2023-05-07T03:28:06;15.69;86.29
68701;DHT22;55682;51.114;5.882;2023-05-07T03:30:38;15.69;86.60
68701;DHT22;55682;51.114;5.882;2023-05-07T03:33:04;15.70;86.61
68701;DHT22;55682;51.114;5.882;2023-05-07T03:35:30;15.74;86.55
68701;DHT22;55682;51.114;5.882;2023-05-07T03:37:56;15.83;86.40
68701;DHT22;55682;51.114;5.882;2023-05-07T03:40:21;15.88;85.92
68701;DHT22;55682;51.114;5.882;2023-05-07T03:42:51;15.96;85.55
68701;DHT22;55682;51.114;5.882;2023-05-07T03:45:18;16.02;85.17
68701;DHT22;55682;51.114;5.882;2023-05-07T03:47:50;16.02;84.93
68701;DHT22;55682;51.114;5.882;2023-05-07T03:50:19;16.01;84.92
68701;DHT22;55682;51.114;5.882;2023-05-07T03:52:45;15.98;84.89
68701;DHT22;55682;51.114;5.882;2023-05-07T03:55:11;15.97;84.94
68701;DHT22;55682;51.114;5.882;2023-05-07T03:57:39;15.97;85.00
68701;DHT22;55682;51.114;5.882;2023-05-07T04:00:05;16.01;84.73
68701;DHT22;55682;51.114;5.882;2023-05-07T04:02:46;16.06;84.41
68701;DHT22;55682;51.114;5.882;2023-05-07T04:05:13;16.10;84.16
68701;DHT22;55682;51.114;5.882;2023-05-07T04:07:40;16.06;84.07
68701;DHT22;55682;51.114;5.882;2023-05-07T04:10:06;15.93;84.40
68701;DHT22;55682;51.114;5.882;2023-05-07T04:12:32;15.83;84.84
68701;DHT22;55682;51.114;5.882;2023-05-07T04:14:59;15.74;85.16
68701;DHT22;55682;51.114;5.882;2023-05-07T04:17:25;15.74;85.36
68701;DHT22;55682;51.114;5.882;2023-05-07T04:19:50;15.76;85.38
68701;DHT22;55682;51.114;5.882;2023-05-07T04:22:17;15.83;85.17
68701;DHT22;55682;51.114;5.882;2023-05-07T04:24:43;15.81;85.14
68701;DHT22;55682;51.114;5.882;2023-05-07T04:27:09;15.72;85.53
68701;DHT22;55682;51.114;5.882;2023-05-07T04:29:34;15.59;85.93
68701;DHT22;55682;51.114;5.882;2023-05-07T04:32:01;15.48;86.35
68701;DHT22;55682;51.114;5.882;2023-05-07T04:34:27;15.48;86.63
68701;DHT22;55682;51.114;5.882;2023-05-07T04:36:53;15.54;86.72
68701;DHT22;55682;51.114;5.882;2023-05-07T04:39:19;15.69;86.43
68701;DHT22;55682;51.114;5.882;2023-05-07T04:41:46;15.87;85.89
68701;DHT22;55682;51.114;5.882;2023-05-07T04:44:12;16.02;85.27
68701;DHT22;55682;51.114;5.882;2023-05-07T04:46:38;16.17;84.34
68701;DHT22;55682;51.114;5.882;2023-05-07T04:49:04;16.26;83.78
68701;DHT22;55682;51.114;5.882;2023-05-07T04:51:31;16.26;83.76
68701;DHT22;55682;51.114;5.882;2023-05-07T04:53:58;16.34;83.93
68701;DHT22;55682;51.114;5.882;2023-05-07T04:56:27;16.46;83.60
68701;DHT22;55682;51.114;5.882;2023-05-07T04:58:54;16.47;83.13
68701;DHT22;55682;51.114;5.882;2023-05-07T05:01:20;16.41;83.16
68701;DHT22;55682;51.114;5.882;2023-05-07T05:03:47;16.42;83.42
68701;DHT22;55682;51.114;5.882;2023-05-07T05:06:13;16.52;83.26
68701;DHT22;55682;51.114;5.882;2023-05-07T05:08:39;16.69;82.62
68701;DHT22;55682;51.114;5.882;2023-05-07T05:11:05;16.92;82.05
68701;DHT22;55682;51.114;5.882;2023-05-07T05:13:33;17.32;81.36
68701;DHT22;55682;51.114;5.882;2023-05-07T05:16:01;17.91;79.44
68701;DHT22;55682;51.114;5.882;2023-05-07T05:18:28;18.22;77.22
68701;DHT22;55682;51.114;5.882;2023-05-07T05:20:54;18.34;76.08
68701;DHT22;55682;51.114;5.882;2023-05-07T05:23:20;18.35;75.82
68701;DHT22;55682;51.114;5.882;2023-05-07T05:25:46;18.42;75.28
68701;DHT22;55682;51.114;5.882;2023-05-07T05:28:13;18.50;74.48
68701;DHT22;55682;51.114;5.882;2023-05-07T05:30:39;18.53;74.35
68701;DHT22;55682;51.114;5.882;2023-05-07T05:33:04;18.50;74.39
68701;DHT22;55682;51.114;5.882;2023-05-07T05:35:30;18.41;74.47
68701;DHT22;55682;51.114;5.882;2023-05-07T05:37:57;18.30;75.02
68701;DHT22;55682;51.114;5.882;2023-05-07T05:40:23;18.19;75.27
68701;DHT22;55682;51.114;5.882;2023-05-07T05:42:49;17.98;75.92
68701;DHT22;55682;51.114;5.882;2023-05-07T05:45:16;17.91;76.61
68701;DHT22;55682;51.114;5.882;2023-05-07T05:47:43;17.91;76.86
68701;DHT22;55682;51.114;5.882;2023-05-07T05:50:09;17.87;76.74
68701;DHT22;55682;51.114;5.882;2023-05-07T05:52:35;17.79;77.06
68701;DHT22;55682;51.114;5.882;2023-05-07T05:55:00;17.74;77.50
68701;DHT22;55682;51.114;5.882;2023-05-07T05:57:26;17.62;77.67
68701;DHT22;55682;51.114;5.882;2023-05-07T05:59:52;17.54;78.21
68701;DHT22;55682;51.114;5.882;2023-05-07T06:02:17;17.55;78.34
68701;DHT22;55682;51.114;5.882;2023-05-07T06:04:43;17.63;78.23
68701;DHT22;55682;51.114;5.882;2023-05-07T06:07:11;17.76;77.92
68701;DHT22;55682;51.114;5.882;2023-05-07T06:09:36;17.78;77.65
68701;DHT22;55682;51.114;5.882;2023-05-07T06:12:02;17.76;78.05
68701;DHT22;55682;51.114;5.882;2023-05-07T06:14:30;17.67;78.00
68701;DHT22;55682;51.114;5.882;2023-05-07T06:16:56;17.54;78.29
68701;DHT22;55682;51.114;5.882;2023-05-07T06:19:22;17.52;78.59
68701;DHT22;55682;51.114;5.882;2023-05-07T06:21:50;17.58;78.82
68701;DHT22;55682;51.114;5.882;2023-05-07T06:24:15;17.73;78.66
68701;DHT22;55682;51.114;5.882;2023-05-07T06:26:41;17.89;78.02
68701;DHT22;55682;51.114;5.882;2023-05-07T06:29:07;17.99;77.54
68701;DHT22;55682;51.114;5.882;2023-05-07T06:31:33;18.13;76.87
68701;DHT22;55682;51.114;5.882;2023-05-07T06:34:02;18.24;76.76
68701;DHT22;55682;51.114;5.882;2023-05-07T06:36:34;18.37;75.93
68701;DHT22;55682;51.114;5.882;2023-05-07T06:39:06;18.51;75.43
68701;DHT22;55682;51.114;5.882;2023-05-07T06:41:31;18.76;74.71
68701;DHT22;55682;51.114;5.882;2023-05-07T06:44:04;19.00;73.45
68701;DHT22;55682;51.114;5.882;2023-05-07T06:46:36;19.16;72.72
68701;DHT22;55682;51.114;5.882;2023-05-07T06:49:03;19.28;72.41
68701;DHT22;55682;51.114;5.882;2023-05-07T06:51:30;19.45;71.43
68701;DHT22;55682;51.114;5.882;2023-05-07T06:53:59;19.46;71.51
68701;DHT22;55682;51.114;5.882;2023-05-07T06:56:24;19.58;70.61
68701;DHT22;55682;51.114;5.882;2023-05-07T06:58:50;19.72;69.94
68701;DHT22;55682;51.114;5.882;2023-05-07T07:01:17;19.90;69.66
68701;DHT22;55682;51.114;5.882;2023-05-07T07:03:43;19.98;68.67
68701;DHT22;55682;51.114;5.882;2023-05-07T07:06:09;20.02;68.83
68701;DHT22;55682;51.114;5.882;2023-05-07T07:08:35;20.03;68.58
68701;DHT22;55682;51.114;5.882;2023-05-07T07:11:01;19.95;68.75
68701;DHT22;55682;51.114;5.882;2023-05-07T07:13:26;19.91;68.91
68701;DHT22;55682;51.114;5.882;2023-05-07T07:15:52;20.04;68.92
68701;DHT22;55682;51.114;5.882;2023-05-07T07:18:19;20.15;68.91
68701;DHT22;55682;51.114;5.882;2023-05-07T07:20:47;20.29;68.26
68701;DHT22;55682;51.114;5.882;2023-05-07T07:23:13;20.48;67.66
68701;DHT22;55682;51.114;5.882;2023-05-07T07:25:40;20.47;67.53
68701;DHT22;55682;51.114;5.882;2023-05-07T07:28:06;20.55;67.73
68701;DHT22;55682;51.114;5.882;2023-05-07T07:30:32;20.74;67.07
68701;DHT22;55682;51.114;5.882;2023-05-07T07:32:58;21.04;66.43
68701;DHT22;55682;51.114;5.882;2023-05-07T07:35:30;21.40;66.08
68701;DHT22;55682;51.114;5.882;2023-05-07T07:37:56;21.74;64.40
68701;DHT22;55682;51.114;5.882;2023-05-07T07:40:22;21.97;63.48
68701;DHT22;55682;51.114;5.882;2023-05-07T07:42:48;22.12;62.92
68701;DHT22;55682;51.114;5.882;2023-05-07T07:45:14;22.29;62.64
68701;DHT22;55682;51.114;5.882;2023-05-07T07:47:44;22.46;61.97
68701;DHT22;55682;51.114;5.882;2023-05-07T07:50:10;22.60;61.59
68701;DHT22;55682;51.114;5.882;2023-05-07T07:52:36;22.93;61.32
68701;DHT22;55682;51.114;5.882;2023-05-07T07:55:02;23.22;59.73
68701;DHT22;55682;51.114;5.882;2023-05-07T07:57:28;23.59;58.59
68701;DHT22;55682;51.114;5.882;2023-05-07T07:59:54;24.16;57.57
68701;DHT22;55682;51.114;5.882;2023-05-07T08:02:21;25.07;55.27
68701;DHT22;55682;51.114;5.882;2023-05-07T08:04:48;25.96;52.66
68701;DHT22;55682;51.114;5.882;2023-05-07T08:07:14;26.46;50.66
68701;DHT22;55682;51.114;5.882;2023-05-07T08:09:43;27.16;49.44
68701;DHT22;55682;51.114;5.882;2023-05-07T08:12:09;28.00;46.89
68701;DHT22;55682;51.114;5.882;2023-05-07T08:14:36;28.59;45.19
68701;DHT22;55682;51.114;5.882;2023-05-07T08:17:03;29.37;44.22
68701;DHT22;55682;51.114;5.882;2023-05-07T08:19:29;30.07;43.10
68701;DHT22;55682;51.114;5.882;2023-05-07T08:21:55;31.08;40.33
68701;DHT22;55682;51.114;5.882;2023-05-07T08:24:22;32.35;37.66
68701;DHT22;55682;51.114;5.882;2023-05-07T08:26:48;33.38;34.95
68701;DHT22;55682;51.114;5.882;2023-05-07T08:29:15;33.48;33.67
68701;DHT22;55682;51.114;5.882;2023-05-07T08:31:41;32.57;35.21
68701;DHT22;55682;51.114;5.882;2023-05-07T08:34:07;31.48;37.17
68701;DHT22;55682;51.114;5.882;2023-05-07T08:36:34;30.39;39.48
68701;DHT22;55682;51.114;5.882;2023-05-07T08:39:00;29.85;40.95
68701;DHT22;55682;51.114;5.882;2023-05-07T08:41:26;29.73;41.00
68701;DHT22;55682;51.114;5.882;2023-05-07T08:43:57;29.20;41.05
68701;DHT22;55682;51.114;5.882;2023-05-07T08:46:25;28.77;41.52
68701;DHT22;55682;51.114;5.882;2023-05-07T08:48:54;28.60;41.67
68701;DHT22;55682;51.114;5.882;2023-05-07T08:51:21;28.38;42.42
68701;DHT22;55682;51.114;5.882;2023-05-07T08:53:48;28.37;42.32
68701;DHT22;55682;51.114;5.882;2023-05-07T08:56:20;28.48;41.64
68701;DHT22;55682;51.114;5.882;2023-05-07T08:58:47;28.24;42.30
68701;DHT22;55682;51.114;5.882;2023-05-07T09:01:15;27.89;42.81
68701;DHT22;55682;51.114;5.882;2023-05-07T09:03:47;27.44;43.74
68701;DHT22;55682;51.114;5.882;2023-05-07T09:06:15;27.14;44.58
68701;DHT22;55682;51.114;5.882;2023-05-07T09:08:48;27.29;44.00
68701;DHT22;55682;51.114;5.882;2023-05-07T09:11:16;27.45;43.71
68701;DHT22;55682;51.114;5.882;2023-05-07T09:13:42;27.59;43.59
68701;DHT22;55682;51.114;5.882;2023-05-07T09:16:12;27.36;44.00
68701;DHT22;55682;51.114;5.882;2023-05-07T09:18:43;26.95;44.75
68701;DHT22;55682;51.114;5.882;2023-05-07T09:21:11;26.55;46.09
68701;DHT22;55682;51.114;5.882;2023-05-07T09:23:40;26.22;46.79
68701;DHT22;55682;51.114;5.882;2023-05-07T09:26:06;25.80;48.02
68701;DHT22;55682;51.114;5.882;2023-05-07T09:28:42;25.57;49.17
68701;DHT22;55682;51.114;5.882;2023-05-07T09:31:11;25.59;48.92
68701;DHT22;55682;51.114;5.882;2023-05-07T09:33:38;25.82;47.60
68701;DHT22;55682;51.114;5.882;2023-05-07T09:36:06;26.01;46.76
68701;DHT22;55682;51.114;5.882;2023-05-07T09:38:34;26.11;46.31
68701;DHT22;55682;51.114;5.882;2023-05-07T09:41:09;26.15;46.45
68701;DHT22;55682;51.114;5.882;2023-05-07T09:43:42;26.33;46.31
68701;DHT22;55682;51.114;5.882;2023-05-07T09:46:14;26.46;46.18
68701;DHT22;55682;51.114;5.882;2023-05-07T09:48:46;26.62;45.70
68701;DHT22;55682;51.114;5.882;2023-05-07T09:51:33;26.69;45.26
68701;DHT22;55682;51.114;5.882;2023-05-07T09:54:02;26.99;44.68
68701;DHT22;55682;51.114;5.882;2023-05-07T09:56:30;27.38;44.03
68701;DHT22;55682;51.114;5.882;2023-05-07T09:59:00;27.94;43.18
68701;DHT22;55682;51.114;5.882;2023-05-07T10:01:27;28.41;42.50
68701;DHT22;55682;51.114;5.882;2023-05-07T10:03:53;28.70;41.78
68701;DHT22;55682;51.114;5.882;2023-05-07T10:06:20;29.03;41.30
68701;DHT22;55682;51.114;5.882;2023-05-07T10:08:48;29.80;38.90
68701;DHT22;55682;51.114;5.882;2023-05-07T10:11:13;30.17;37.67
68701;DHT22;55682;51.114;5.882;2023-05-07T10:13:43;29.95;36.72
68701;DHT22;55682;51.114;5.882;2023-05-07T10:16:09;29.44;37.61
68701;DHT22;55682;51.114;5.882;2023-05-07T10:18:41;29.43;37.96
68701;DHT22;55682;51.114;5.882;2023-05-07T10:21:18;29.70;37.30
68701;DHT22;55682;51.114;5.882;2023-05-07T10:23:50;30.20;35.15
68701;DHT22;55682;51.114;5.882;2023-05-07T10:26:20;29.88;35.99
68701;DHT22;55682;51.114;5.882;2023-05-07T10:28:54;29.54;36.34
68701;DHT22;55682;51.114;5.882;2023-05-07T10:33:55;30.57;34.99
68701;DHT22;55682;51.114;5.882;2023-05-07T10:36:24;30.77;34.00
68701;DHT22;55682;51.114;5.882;2023-05-07T10:38:52;30.74;34.41
68701;DHT22;55682;51.114;5.882;2023-05-07T10:41:18;30.76;34.51
68701;DHT22;55682;51.114;5.882;2023-05-07T10:43:45;30.44;35.30
68701;DHT22;55682;51.114;5.882;2023-05-07T10:46:20;30.34;35.76
68701;DHT22;55682;51.114;5.882;2023-05-07T10:51:41;29.97;36.98
68701;DHT22;55682;51.114;5.882;2023-05-07T10:54:21;29.85;36.22
68701;DHT22;55682;51.114;5.882;2023-05-07T10:59:58;29.36;35.04
68701;DHT22;55682;51.114;5.882;2023-05-07T11:05:30;29.20;36.02
68701;DHT22;55682;51.114;5.882;2023-05-07T11:08:15;29.35;35.94
68701;DHT22;55682;51.114;5.882;2023-05-07T11:10:55;29.59;35.34
68701;DHT22;55682;51.114;5.882;2023-05-07T11:13:43;29.70;35.69
68701;DHT22;55682;51.114;5.882;2023-05-07T11:16:18;29.60;36.00
68701;DHT22;55682;51.114;5.882;2023-05-07T11:18:51;29.39;36.55
68701;DHT22;55682;51.114;5.882;2023-05-07T11:21:40;28.77;37.61
68701;DHT22;55682;51.114;5.882;2023-05-07T11:24:13;28.13;39.31
68701;DHT22;55682;51.114;5.882;2023-05-07T11:26:49;27.97;40.10
68701;DHT22;55682;51.114;5.882;2023-05-07T11:29:20;28.13;39.35
68701;DHT22;55682;51.114;5.882;2023-05-07T11:31:52;28.14;39.88
68701;DHT22;55682;51.114;5.882;2023-05-07T11:34:23;28.29;39.78
68701;DHT22;55682;51.114;5.882;2023-05-07T11:36:53;28.30;39.95
68701;DHT22;55682;51.114;5.882;2023-05-07T11:39:31;28.19;40.30
68701;DHT22;55682;51.114;5.882;2023-05-07T11:42:01;27.99;41.71
68701;DHT22;55682;51.114;5.882;2023-05-07T11:44:45;27.95;42.13
68701;DHT22;55682;51.114;5.882;2023-05-07T11:47:18;27.95;42.58
68701;DHT22;55682;51.114;5.882;2023-05-07T11:49:47;27.93;43.10
68701;DHT22;55682;51.114;5.882;2023-05-07T11:52:14;27.85;43.51
68701;DHT22;55682;51.114;5.882;2023-05-07T11:54:40;27.76;44.35
68701;DHT22;55682;51.114;5.882;2023-05-07T11:57:05;27.66;44.93
68701;DHT22;55682;51.114;5.882;2023-05-07T11:59:39;27.46;46.16
68701;DHT22;55682;51.114;5.882;2023-05-07T12:02:09;27.35;46.64
68701;DHT22;55682;51.114;5.882;2023-05-07T12:04:34;27.19;46.50
68701;DHT22;55682;51.114;5.882;2023-05-07T12:07:00;27.00;46.87
68701;DHT22;55682;51.114;5.882;2023-05-07T12:09:26;26.80;46.91
68701;DHT22;55682;51.114;5.882;2023-05-07T12:11:52;26.27;48.03
68701;DHT22;55682;51.114;5.882;2023-05-07T12:14:18;25.81;49.53
68701;DHT22;55682;51.114;5.882;2023-05-07T12:16:45;25.42;51.30
68701;DHT22;55682;51.114;5.882;2023-05-07T12:19:11;25.14;52.36
68701;DHT22;55682;51.114;5.882;2023-05-07T12:21:40;24.97;52.94
68701;DHT22;55682;51.114;5.882;2023-05-07T12:24:07;24.75;53.94
68701;DHT22;55682;51.114;5.882;2023-05-07T12:26:38;24.61;55.21
68701;DHT22;55682;51.114;5.882;2023-05-07T12:29:04;24.49;55.90
68701;DHT22;55682;51.114;5.882;2023-05-07T12:31:30;24.44;57.01
68701;DHT22;55682;51.114;5.882;2023-05-07T12:33:55;24.42;57.98
68701;DHT22;55682;51.114;5.882;2023-05-07T12:36:21;24.39;58.40
68701;DHT22;55682;51.114;5.882;2023-05-07T12:38:49;24.42;59.09
68701;DHT22;55682;51.114;5.882;2023-05-07T12:41:15;24.50;59.52
68701;DHT22;55682;51.114;5.882;2023-05-07T12:43:44;24.58;59.22
68701;DHT22;55682;51.114;5.882;2023-05-07T12:46:10;24.62;58.91
68701;DHT22;55682;51.114;5.882;2023-05-07T12:48:37;24.64;58.71
68701;DHT22;55682;51.114;5.882;2023-05-07T12:51:05;24.74;58.79
68701;DHT22;55682;51.114;5.882;2023-05-07T12:53:31;24.86;58.65
68701;DHT22;55682;51.114;5.882;2023-05-07T12:55:58;25.03;57.94
68701;DHT22;55682;51.114;5.882;2023-05-07T12:58:30;25.24;58.15
68701;DHT22;55682;51.114;5.882;2023-05-07T13:00:57;25.38;57.13
68701;DHT22;55682;51.114;5.882;2023-05-07T13:03:33;25.44;57.61
68701;DHT22;55682;51.114;5.882;2023-05-07T13:06:03;25.50;57.84
68701;DHT22;55682;51.114;5.882;2023-05-07T13:08:34;25.57;57.69
68701;DHT22;55682;51.114;5.882;2023-05-07T13:11:01;25.57;56.25
68701;DHT22;55682;51.114;5.882;2023-05-07T13:13:30;25.57;55.50
68701;DHT22;55682;51.114;5.882;2023-05-07T13:15:56;25.56;55.26
68701;DHT22;55682;51.114;5.882;2023-05-07T13:18:23;25.63;55.12
68701;DHT22;55682;51.114;5.882;2023-05-07T13:20:49;25.68;55.45
68701;DHT22;55682;51.114;5.882;2023-05-07T13:23:15;25.74;55.16
68701;DHT22;55682;51.114;5.882;2023-05-07T13:25:40;25.89;54.57
68701;DHT22;55682;51.114;5.882;2023-05-07T13:28:06;25.95;54.20
68701;DHT22;55682;51.114;5.882;2023-05-07T13:30:32;26.02;53.35
68701;DHT22;55682;51.114;5.882;2023-05-07T13:32:57;26.11;52.68
68701;DHT22;55682;51.114;5.882;2023-05-07T13:35:23;26.27;52.79
68701;DHT22;55682;51.114;5.882;2023-05-07T13:37:48;26.45;52.55
68701;DHT22;55682;51.114;5.882;2023-05-07T13:40:15;26.55;52.55
68701;DHT22;55682;51.114;5.882;2023-05-07T13:42:41;26.68;52.07
68701;DHT22;55682;51.114;5.882;2023-05-07T13:45:07;26.86;51.72
68701;DHT22;55682;51.114;5.882;2023-05-07T13:47:34;26.98;50.93
68701;DHT22;55682;51.114;5.882;2023-05-07T13:49:59;26.91;50.98
68701;DHT22;55682;51.114;5.882;2023-05-07T13:52:25;26.94;50.90
68701;DHT22;55682;51.114;5.882;2023-05-07T13:54:51;26.97;50.14
68701;DHT22;55682;51.114;5.882;2023-05-07T13:57:18;26.99;50.38
68701;DHT22;55682;51.114;5.882;2023-05-07T13:59:44;27.04;50.08
68701;DHT22;55682;51.114;5.882;2023-05-07T14:02:09;27.14;49.94
68701;DHT22;55682;51.114;5.882;2023-05-07T14:04:35;27.26;49.85
68701;DHT22;55682;51.114;5.882;2023-05-07T14:07:01;27.32;49.81
68701;DHT22;55682;51.114;5.882;2023-05-07T14:09:26;27.36;49.31
68701;DHT22;55682;51.114;5.882;2023-05-07T14:11:52;27.40;48.65
68701;DHT22;55682;51.114;5.882;2023-05-07T14:14:18;27.37;47.85
68701;DHT22;55682;51.114;5.882;2023-05-07T14:16:44;27.37;47.28
68701;DHT22;55682;51.114;5.882;2023-05-07T14:19:13;27.39;47.63
68701;DHT22;55682;51.114;5.882;2023-05-07T14:21:39;27.50;47.27
68701;DHT22;55682;51.114;5.882;2023-05-07T14:24:07;27.52;46.70
68701;DHT22;55682;51.114;5.882;2023-05-07T14:26:33;27.44;46.20
68701;DHT22;55682;51.114;5.882;2023-05-07T14:28:59;27.42;46.30
68701;DHT22;55682;51.114;5.882;2023-05-07T14:31:24;27.44;46.23
68701;DHT22;55682;51.114;5.882;2023-05-07T14:33:50;27.47;45.51
68701;DHT22;55682;51.114;5.882;2023-05-07T14:36:17;27.41;45.09
68701;DHT22;55682;51.114;5.882;2023-05-07T14:38:43;27.29;44.68
68701;DHT22;55682;51.114;5.882;2023-05-07T14:41:08;27.37;45.18
68701;DHT22;55682;51.114;5.882;2023-05-07T14:43:34;27.40;44.93
68701;DHT22;55682;51.114;5.882;2023-05-07T14:45:59;27.37;45.06
68701;DHT22;55682;51.114;5.882;2023-05-07T14:48:25;27.47;45.31
68701;DHT22;55682;51.114;5.882;2023-05-07T14:50:51;27.50;44.94
68701;DHT22;55682;51.114;5.882;2023-05-07T14:53:16;27.47;44.90
68701;DHT22;55682;51.114;5.882;2023-05-07T14:55:42;27.39;44.33
68701;DHT22;55682;51.114;5.882;2023-05-07T14:58:08;27.36;44.53
68701;DHT22;55682;51.114;5.882;2023-05-07T15:00:33;27.32;44.47
68701;DHT22;55682;51.114;5.882;2023-05-07T15:03:06;27.22;45.29
68701;DHT22;55682;51.114;5.882;2023-05-07T15:05:33;27.10;45.79
68701;DHT22;55682;51.114;5.882;2023-05-07T15:07:58;27.13;46.60
68701;DHT22;55682;51.114;5.882;2023-05-07T15:10:24;27.19;46.31
68701;DHT22;55682;51.114;5.882;2023-05-07T15:12:50;27.19;46.53
68701;DHT22;55682;51.114;5.882;2023-05-07T15:15:16;27.22;46.92
68701;DHT22;55682;51.114;5.882;2023-05-07T15:17:41;27.23;47.18
68701;DHT22;55682;51.114;5.882;2023-05-07T15:20:07;27.27;47.08
68701;DHT22;55682;51.114;5.882;2023-05-07T15:22:34;27.23;47.15
68701;DHT22;55682;51.114;5.882;2023-05-07T15:25:01;27.20;46.59
68701;DHT22;55682;51.114;5.882;2023-05-07T15:27:27;27.07;46.53
68701;DHT22;55682;51.114;5.882;2023-05-07T15:29:52;26.98;46.31
68701;DHT22;55682;51.114;5.882;2023-05-07T15:32:18;26.96;46.38
68701;DHT22;55682;51.114;5.882;2023-05-07T15:34:43;26.94;46.76
68701;DHT22;55682;51.114;5.882;2023-05-07T15:37:10;26.96;46.83
68701;DHT22;55682;51.114;5.882;2023-05-07T15:39:36;27.05;46.75
68701;DHT22;55682;51.114;5.882;2023-05-07T15:42:01;27.08;46.67
68701;DHT22;55682;51.114;5.882;2023-05-07T15:44:27;27.05;46.86
68701;DHT22;55682;51.114;5.882;2023-05-07T15:46:55;27.06;47.09